Time;durP1;ratioP1;P1;durP2;ratioP2;P2;SDS_P1;SDS_P2;PMS_P1;PMS_P2;Temp;Humidity;BMP_temperature;BMP_pressure;BME280_temperature;BME280_humidity;BME280_pressure;Samples;Min_cycle;Max_cycle;Signal;HPM_P1;HPM_P2
2022/11/12 00:00:37;;;;;;;36.73;22.90;;;3.60;99.90;;;;;;5053058;28;20112;-86
2022/11/12 00:03:03;;;;;;;47.23;23.70;;;3.60;99.90;;;;;;5052660;28;20021;-86
2022/11/12 00:05:29;;;;;;;34.70;24.20;;;3.60;99.90;;;;;;5052579;28;20036;-86
2022/11/12 00:07:55;;;;;;;51.97;25.13;;;3.60;99.90;;;;;;5037319;28;20048;-86
2022/11/12 00:10:40;;;;;;;83.70;25.77;;;3.60;99.90;;;;;;5057118;28;20031;-86
2022/11/12 00:13:06;;;;;;;40.72;24.35;;;3.60;99.90;;;;;;5057050;28;20021;-86
2022/11/12 00:15:31;;;;;;;42.23;25.17;;;3.60;99.90;;;;;;5057172;28;20490;-87
2022/11/12 00:17:57;;;;;;;45.37;25.27;;;3.60;99.90;;;;;;5056601;28;20074;-86
2022/11/12 00:20:22;;;;;;;35.07;23.23;;;3.50;99.90;;;;;;5056907;28;20474;-86
2022/11/12 00:22:48;;;;;;;42.03;24.50;;;3.60;99.90;;;;;;5056679;28;20029;-86
2022/11/12 00:25:14;;;;;;;32.87;23.13;;;3.50;99.90;;;;;;5057164;28;20043;-86
2022/11/12 00:27:39;;;;;;;65.07;25.13;;;3.60;99.90;;;;;;5056622;28;20021;-86
2022/11/12 00:30:06;;;;;;;40.33;22.83;;;3.60;99.90;;;;;;5056441;28;20345;-87
2022/11/12 00:32:35;;;;;;;103.70;25.20;;;3.50;99.90;;;;;;5056614;28;20104;-87
2022/11/12 00:35:00;;;;;;;68.83;21.90;;;3.50;99.90;;;;;;5056991;28;20013;-87
2022/11/12 00:37:26;;;;;;;120.83;23.23;;;3.50;99.90;;;;;;5057153;28;20511;-87
2022/11/12 00:39:51;;;;;;;53.53;18.30;;;3.50;99.90;;;;;;5056659;28;20121;-87
2022/11/12 00:42:17;;;;;;;37.30;20.40;;;3.50;99.90;;;;;;5038493;28;20478;-86
2022/11/12 00:44:43;;;;;;;42.70;19.87;;;3.40;99.90;;;;;;5056665;28;20498;-86
2022/11/12 00:47:08;;;;;;;71.57;17.70;;;3.40;99.90;;;;;;5056393;28;20037;-86
2022/11/12 00:49:34;;;;;;;69.77;17.80;;;3.40;99.90;;;;;;5056403;28;20029;-86
2022/11/12 00:51:59;;;;;;;35.20;16.70;;;3.30;99.90;;;;;;5056535;28;20496;-87
2022/11/12 00:54:25;;;;;;;182.53;18.30;;;3.30;99.90;;;;;;5056308;28;20021;-87
2022/11/12 00:56:50;;;;;;;89.20;17.00;;;3.30;99.90;;;;;;5056506;28;20021;-87
2022/11/12 00:59:16;;;;;;;268.13;21.30;;;3.30;99.90;;;;;;5056359;28;20024;-87
2022/11/12 01:01:41;;;;;;;44.80;17.70;;;3.30;99.90;;;;;;5056188;28;20426;-87
2022/11/12 01:04:08;;;;;;;367.73;28.80;;;3.20;99.90;;;;;;5056421;28;20403;-87
2022/11/12 01:06:34;;;;;;;262.50;24.23;;;3.20;99.90;;;;;;5056046;28;20060;-87
2022/11/12 01:08:59;;;;;;;446.67;25.60;;;3.20;99.90;;;;;;5055937;28;20548;-87
2022/11/12 01:11:29;;;;;;;91.93;18.27;;;3.20;99.90;;;;;;5056106;28;20463;-87
2022/11/12 01:14:01;;;;;;;160.60;21.77;;;3.20;99.90;;;;;;5055745;28;20025;-87
2022/11/12 01:16:35;;;;;;;115.83;20.23;;;3.20;99.90;;;;;;5055909;28;20107;-87
2022/11/12 01:19:03;;;;;;;60.50;20.70;;;3.20;99.90;;;;;;5055706;28;20548;-87
2022/11/12 01:21:30;;;;;;;215.07;23.53;;;3.20;99.90;;;;;;5037566;28;20083;-87
2022/11/12 01:23:57;;;;;;;58.97;19.10;;;3.20;99.90;;;;;;5055483;28;20067;-87
2022/11/12 01:26:27;;;;;;;293.90;23.83;;;3.20;99.90;;;;;;5055437;28;20116;-87
2022/11/12 01:28:55;;;;;;;112.40;19.03;;;3.20;99.90;;;;;;5055728;28;20024;-87
2022/11/12 01:31:26;;;;;;;416.20;25.03;;;3.20;99.90;;;;;;5055368;28;20379;-87
2022/11/12 01:33:58;;;;;;;348.47;23.63;;;3.20;99.90;;;;;;5037340;28;20350;-87
2022/11/12 01:36:30;;;;;;;32.87;17.27;;;3.20;99.90;;;;;;5037342;28;20127;-87
2022/11/12 01:38:56;;;;;;;164.43;20.40;;;3.20;99.90;;;;;;5037638;28;20377;-87
2022/11/12 01:41:25;;;;;;;221.30;20.77;;;3.20;99.90;;;;;;5037327;28;20029;-87
2022/11/12 01:44:14;;;;;;;36.83;17.07;;;3.10;99.90;;;;;;5055266;28;20485;-86
2022/11/12 01:46:50;;;;;;;139.87;17.80;;;3.20;99.90;;;;;;5055565;28;20021;-87
2022/11/12 01:49:27;;;;;;;50.07;16.50;;;3.20;99.90;;;;;;5055285;28;20033;-87
2022/11/12 01:52:01;;;;;;;88.87;18.30;;;3.20;99.90;;;;;;5055040;28;20027;-86
2022/11/12 01:54:26;;;;;;;28.80;17.37;;;3.20;99.90;;;;;;5037325;28;20032;-87
2022/11/12 01:56:58;;;;;;;38.53;17.77;;;3.20;99.90;;;;;;5055174;28;20033;-86
2022/11/12 01:59:36;;;;;;;71.03;18.13;;;3.20;99.90;;;;;;5037830;28;20332;-87
2022/11/12 02:02:09;;;;;;;36.10;20.17;;;3.30;99.90;;;;;;5054774;28;20025;-86
2022/11/12 02:04:39;;;;;;;76.87;20.27;;;3.30;99.90;;;;;;5036844;28;20029;-86
2022/11/12 02:07:09;;;;;;;26.13;18.77;;;3.20;99.90;;;;;;5054627;28;20025;-86
2022/11/12 02:09:37;;;;;;;38.17;18.57;;;3.30;99.90;;;;;;5054646;28;20063;-86
2022/11/12 02:12:03;;;;;;;65.17;20.50;;;3.30;99.90;;;;;;5054726;28;20025;-86
2022/11/12 02:14:29;;;;;;;28.40;18.70;;;3.30;99.90;;;;;;5054790;28;20025;-86
2022/11/12 02:16:55;;;;;;;31.90;19.47;;;3.30;99.90;;;;;;5054571;28;20033;-86
2022/11/12 02:19:25;;;;;;;37.73;19.00;;;3.30;99.90;;;;;;5055073;28;20115;-86
2022/11/12 02:21:55;;;;;;;40.87;19.53;;;3.20;99.90;;;;;;5054425;28;20433;-87
2022/11/12 02:24:46;;;;;;;25.27;17.70;;;3.30;99.90;;;;;;5054485;28;20104;-87
2022/11/12 02:27:18;;;;;;;36.00;18.73;;;3.30;99.90;;;;;;5048766;28;20029;-87
2022/11/12 02:29:46;;;;;;;20.23;17.57;;;3.30;99.90;;;;;;5053838;28;20036;-87
2022/11/12 02:32:14;;;;;;;40.00;20.30;;;3.30;99.90;;;;;;5054297;28;20020;-87
2022/11/12 02:34:40;;;;;;;25.17;17.50;;;3.30;99.90;;;;;;5037126;28;20396;-87
2022/11/12 02:37:06;;;;;;;28.90;17.70;;;3.30;99.90;;;;;;5036658;28;20025;-87
2022/11/12 02:39:32;;;;;;;33.87;17.57;;;3.30;99.90;;;;;;5054325;28;20082;-87
2022/11/12 02:41:58;;;;;;;20.83;17.03;;;3.40;99.90;;;;;;5054439;28;20093;-87
2022/11/12 02:44:27;;;;;;;71.40;19.90;;;3.30;99.90;;;;;;5054067;28;20478;-87
2022/11/12 02:46:55;;;;;;;21.97;17.53;;;3.30;99.90;;;;;;5035808;28;20492;-87
2022/11/12 02:49:20;;;;;;;34.67;19.30;;;3.30;99.90;;;;;;5053994;28;20025;-87
2022/11/12 02:51:46;;;;;;;37.83;17.83;;;3.40;99.90;;;;;;5053846;28;20025;-87
2022/11/12 02:54:12;;;;;;;26.97;18.40;;;3.40;99.90;;;;;;5053915;28;20025;-87
2022/11/12 02:56:37;;;;;;;26.70;18.17;;;3.40;99.90;;;;;;5035912;28;20025;-87
2022/11/12 02:59:03;;;;;;;35.03;18.93;;;3.40;99.90;;;;;;5053745;28;20074;-87
2022/11/12 03:01:28;;;;;;;27.27;16.70;;;3.40;99.90;;;;;;5035775;28;20116;-87
2022/11/12 03:03:54;;;;;;;38.03;18.10;;;3.40;99.90;;;;;;5053583;28;20029;-87
2022/11/12 03:06:20;;;;;;;54.10;18.13;;;3.40;99.90;;;;;;5053550;28;20433;-87
2022/11/12 03:08:45;;;;;;;41.47;17.10;;;3.40;99.90;;;;;;5053445;28;20017;-87
2022/11/12 03:11:13;;;;;;;21.60;16.70;;;3.40;99.90;;;;;;5054201;28;20021;-87
2022/11/12 03:13:40;;;;;;;20.60;15.53;;;3.40;99.90;;;;;;5053841;28;20112;-87
2022/11/12 03:16:06;;;;;;;24.20;16.33;;;3.40;99.90;;;;;;5054037;28;20025;-87
2022/11/12 03:18:34;;;;;;;25.70;16.23;;;3.40;99.90;;;;;;5052838;28;20384;-85
2022/11/12 03:21:07;;;;;;;80.03;19.77;;;3.40;99.90;;;;;;5053180;28;20036;-85
2022/11/12 03:23:35;;;;;;;62.10;16.63;;;3.40;99.90;;;;;;5072482;28;20380;-85
2022/11/12 03:26:04;;;;;;;46.90;16.10;;;3.40;99.90;;;;;;5092944;28;20028;-85
2022/11/12 03:28:30;;;;;;;39.80;16.07;;;3.40;99.90;;;;;;5092629;28;20512;-85
2022/11/12 03:30:59;;;;;;;40.23;16.87;;;3.40;99.90;;;;;;5092785;28;20372;-85
2022/11/12 03:33:25;;;;;;;22.97;16.37;;;3.40;99.90;;;;;;5076173;28;20155;-85
2022/11/12 03:35:50;;;;;;;25.27;15.90;;;3.30;99.90;;;;;;5072699;28;20134;-85
2022/11/12 03:38:16;;;;;;;26.57;17.97;;;3.40;99.90;;;;;;5060979;28;20034;-85
2022/11/12 03:40:44;;;;;;;30.37;16.63;;;3.40;99.90;;;;;;5092895;28;20115;-85
2022/11/12 03:43:12;;;;;;;40.87;16.57;;;3.40;99.90;;;;;;5092595;28;20041;-85
2022/11/12 03:45:37;;;;;;;40.03;17.00;;;3.40;99.90;;;;;;5058088;28;20040;-85
2022/11/12 03:48:03;;;;;;;72.93;17.77;;;3.40;99.90;;;;;;5087954;28;20485;-85
2022/11/12 03:50:29;;;;;;;22.10;16.47;;;3.40;99.90;;;;;;5072347;28;20020;-85
2022/11/12 03:52:58;;;;;;;27.60;15.50;;;3.40;99.90;;;;;;5076011;28;20040;-85
2022/11/12 03:55:28;;;;;;;23.30;16.30;;;3.40;99.90;;;;;;5092612;28;20032;-85
2022/11/12 03:57:54;;;;;;;20.43;16.63;;;3.40;99.90;;;;;;5092715;28;20191;-85
2022/11/12 04:00:25;;;;;;;38.00;16.20;;;3.50;99.90;;;;;;5092683;28;20039;-85
2022/11/12 04:02:51;;;;;;;64.13;16.20;;;3.50;99.90;;;;;;5074706;28;20044;-85
2022/11/12 04:10:48;;;;;;;104.33;14.20;;;3.50;99.90;;;;;;5093143;28;20085;-85
2022/11/12 04:13:29;;;;;;;52.20;13.20;;;3.50;99.90;;;;;;5086777;28;20423;-85
2022/11/12 04:21:52;;;;;;;82.97;12.27;;;3.60;99.90;;;;;;5072443;28;20043;-86
2022/11/12 04:27:08;;;;;;;148.13;13.07;;;3.50;99.90;;;;;;5070115;28;20039;-85
2022/11/12 04:32:44;;;;;;;255.83;14.70;;;3.60;99.90;;;;;;5009471;28;20049;-85
2022/11/12 04:35:09;;;;;;;26.47;10.17;;;3.60;99.90;;;;;;5009331;28;20088;-85
2022/11/12 04:37:45;;;;;;;223.80;14.33;;;3.60;99.90;;;;;;5030028;28;20399;-85
2022/11/12 04:45:46;;;;;;;229.80;13.63;;;3.60;99.90;;;;;;5072339;28;20039;-85
2022/11/12 04:48:12;;;;;;;150.40;12.70;;;3.50;99.90;;;;;;5075035;28;20032;-85
2022/11/12 04:50:38;;;;;;;168.50;13.07;;;3.50;99.90;;;;;;5092103;28;20024;-85
2022/11/12 04:53:04;;;;;;;220.37;13.67;;;3.50;99.90;;;;;;5091012;28;20052;-85
2022/11/12 04:55:31;;;;;;;120.13;11.97;;;3.40;99.90;;;;;;5075583;28;20059;-85
2022/11/12 04:57:56;;;;;;;56.10;11.07;;;3.40;99.90;;;;;;5057490;28;20059;-85
2022/11/12 05:00:22;;;;;;;59.23;12.07;;;3.40;99.90;;;;;;5095205;28;20024;-85
2022/11/12 05:02:50;;;;;;;156.43;14.60;;;3.30;99.90;;;;;;5091315;28;20435;-85
2022/11/12 05:05:16;;;;;;;72.40;11.93;;;3.40;99.90;;;;;;5094753;28;20036;-86
2022/11/12 05:07:42;;;;;;;146.80;13.03;;;3.30;99.90;;;;;;5095807;28;20043;-86
2022/11/12 05:10:08;;;;;;;21.67;11.53;;;3.30;99.90;;;;;;5077642;28;20025;-85
2022/11/12 05:12:34;;;;;;;208.10;14.47;;;3.40;99.90;;;;;;5074515;28;20104;-86
2022/11/12 05:14:59;;;;;;;92.77;11.17;;;3.30;99.90;;;;;;5057150;28;20489;-86
2022/11/12 05:17:25;;;;;;;217.43;12.97;;;3.40;99.90;;;;;;5074987;28;20029;-85
2022/11/12 05:19:51;;;;;;;133.93;12.03;;;3.40;99.90;;;;;;5074789;28;20025;-86
2022/11/12 05:22:16;;;;;;;206.43;12.43;;;3.30;99.90;;;;;;5074763;28;20354;-85
2022/11/12 05:24:43;;;;;;;106.83;11.13;;;3.30;99.90;;;;;;5074539;28;20028;-86
2022/11/12 05:27:18;;;;;;;87.67;10.40;;;3.30;99.90;;;;;;5075376;28;20483;-89
2022/11/12 05:29:44;;;;;;;137.60;11.50;;;3.20;99.90;;;;;;5057319;28;20030;-91
2022/11/12 05:32:11;;;;;;;44.00;9.93;;;3.20;99.90;;;;;;5075186;28;20099;-89
2022/11/12 05:34:37;;;;;;;173.07;12.33;;;3.20;99.90;;;;;;5075193;28;20028;-86
2022/11/12 05:37:04;;;;;;;89.67;10.60;;;3.20;99.90;;;;;;5074822;28;20093;-87
2022/11/12 05:39:30;;;;;;;100.57;10.50;;;3.20;99.90;;;;;;5075085;28;20017;-90
2022/11/12 05:41:56;;;;;;;116.27;10.30;;;3.20;99.90;;;;;;5075262;28;20513;-89
2022/11/12 05:44:22;;;;;;;110.23;9.60;;;3.20;99.90;;;;;;5075256;28;20031;-88
2022/11/12 05:46:49;;;;;;;147.07;10.90;;;3.10;99.90;;;;;;5075274;28;20020;-91
2022/11/12 05:49:15;;;;;;;33.47;9.03;;;3.10;99.90;;;;;;5075415;28;20074;-90
2022/11/12 05:51:41;;;;;;;46.90;9.43;;;3.10;99.90;;;;;;5075275;28;20028;-89
2022/11/12 05:54:07;;;;;;;77.73;10.20;;;3.10;99.90;;;;;;5075335;28;20100;-89
2022/11/12 05:56:33;;;;;;;33.30;9.97;;;3.10;99.90;;;;;;5075334;28;20024;-91
2022/11/12 05:59:00;;;;;;;88.97;10.10;;;3.10;99.90;;;;;;5055126;28;20134;-87
2022/11/12 06:01:25;;;;;;;119.50;10.30;;;3.00;99.90;;;;;;5073937;28;20028;-87
2022/11/12 06:03:51;;;;;;;29.27;9.87;;;3.00;99.90;;;;;;5074729;28;20061;-88
2022/11/12 06:06:17;;;;;;;123.73;11.47;;;3.00;99.90;;;;;;5074243;28;20083;-87
2022/11/12 06:08:42;;;;;;;226.50;13.57;;;3.00;99.90;;;;;;5074744;28;20021;-87
2022/11/12 06:11:08;;;;;;;103.63;12.07;;;3.00;99.90;;;;;;5075053;28;20020;-87
2022/11/12 06:13:33;;;;;;;128.63;11.13;;;3.00;99.90;;;;;;5074527;28;20028;-87
2022/11/12 06:15:59;;;;;;;43.63;9.83;;;3.00;99.90;;;;;;5074712;28;20052;-88
2022/11/12 06:18:25;;;;;;;32.17;10.27;;;3.00;99.90;;;;;;5074746;28;20469;-87
2022/11/12 06:23:35;;;;;;;18.83;10.20;;;3.10;99.90;;;;;;5074526;28;20086;-87
2022/11/12 06:26:02;;;;;;;23.17;9.80;;;3.10;99.90;;;;;;5074585;28;20464;-88
2022/11/12 06:28:28;;;;;;;33.30;11.27;;;3.10;99.90;;;;;;5074279;28;20444;-89
2022/11/12 06:30:54;;;;;;;120.63;11.47;;;3.10;99.90;;;;;;5074570;28;20037;-88
2022/11/12 06:33:20;;;;;;;126.73;11.50;;;3.10;99.90;;;;;;5074708;28;20029;-88
2022/11/12 06:35:46;;;;;;;89.77;11.80;;;3.10;99.90;;;;;;5074439;28;20385;-88
2022/11/12 06:38:11;;;;;;;47.37;10.57;;;3.20;99.90;;;;;;5074114;28;20032;-88
2022/11/12 06:40:37;;;;;;;45.33;10.40;;;3.20;99.90;;;;;;5074091;28;20076;-88
2022/11/12 06:43:02;;;;;;;82.23;12.10;;;3.20;99.90;;;;;;5074249;28;20436;-88
2022/11/12 06:45:28;;;;;;;93.00;10.77;;;3.10;99.90;;;;;;5073680;28;20032;-88
2022/11/12 06:47:57;;;;;;;68.73;11.37;;;3.10;99.90;;;;;;5073981;28;20093;-88
2022/11/12 06:50:23;;;;;;;19.23;9.87;;;3.10;99.90;;;;;;5074255;28;20024;-88
2022/11/12 06:52:49;;;;;;;23.83;10.00;;;3.10;99.90;;;;;;5073700;28;20427;-88
2022/11/12 06:55:14;;;;;;;38.80;10.03;;;3.10;99.90;;;;;;5073985;28;20036;-88
2022/11/12 06:57:40;;;;;;;14.37;9.00;;;3.10;99.90;;;;;;5056359;28;20162;-86
2022/11/12 07:00:07;;;;;;;40.27;8.43;;;3.20;99.90;;;;;;5074765;28;20028;-87
2022/11/12 07:02:33;;;;;;;8.80;7.13;;;3.20;99.90;;;;;;5074267;28;20024;-87
2022/11/12 07:04:58;;;;;;;41.47;7.70;;;3.10;99.90;;;;;;5073578;28;20025;-88
2022/11/12 07:07:24;;;;;;;19.63;7.97;;;3.10;99.90;;;;;;5073891;28;20036;-88
2022/11/12 07:09:49;;;;;;;91.53;8.23;;;3.10;99.90;;;;;;5073624;28;20099;-88
2022/11/12 07:12:15;;;;;;;158.43;10.03;;;3.10;99.90;;;;;;5073510;28;20024;-87
2022/11/12 07:14:41;;;;;;;54.40;8.87;;;3.10;99.90;;;;;;5073477;28;20024;-87
2022/11/12 07:17:06;;;;;;;49.67;8.73;;;3.10;99.90;;;;;;5073073;28;20119;-87
2022/11/12 07:19:32;;;;;;;122.17;10.70;;;3.10;99.90;;;;;;5073360;28;20024;-87
2022/11/12 07:21:57;;;;;;;38.60;7.87;;;3.10;99.90;;;;;;5073276;28;20039;-87
2022/11/12 07:24:23;;;;;;;12.00;7.27;;;3.20;99.90;;;;;;5073206;28;20641;-87
2022/11/12 07:26:48;;;;;;;50.37;8.50;;;3.20;99.90;;;;;;5073080;28;20389;-87
2022/11/12 07:29:14;;;;;;;16.73;7.67;;;3.30;99.90;;;;;;5073040;28;20374;-87
2022/11/12 07:31:39;;;;;;;21.50;7.13;;;3.30;99.90;;;;;;5055245;28;20012;-88
2022/11/12 07:34:05;;;;;;;31.10;7.07;;;3.40;99.90;;;;;;5072969;28;20170;-87
2022/11/12 07:36:30;;;;;;;11.30;7.10;;;3.40;99.90;;;;;;5073131;28;20035;-87
2022/11/12 07:38:56;;;;;;;23.30;7.50;;;3.50;99.90;;;;;;5073045;28;20143;-87
2022/11/12 07:41:24;;;;;;;14.33;7.27;;;3.50;99.90;;;;;;5073358;28;20476;-87
2022/11/12 07:43:56;;;;;;;21.67;6.87;;;3.50;99.90;;;;;;5073195;28;20432;-87
2022/11/12 07:46:24;;;;;;;13.13;6.63;;;3.60;99.90;;;;;;5072771;28;20082;-87
2022/11/12 07:48:53;;;;;;;20.63;7.30;;;3.60;99.90;;;;;;5054731;28;20032;-88
2022/11/12 07:51:30;;;;;;;26.50;7.17;;;3.60;99.90;;;;;;5074792;28;20472;-87
2022/11/12 07:53:58;;;;;;;27.07;7.47;;;3.70;99.90;;;;;;5073972;28;20024;-87
2022/11/12 07:56:27;;;;;;;26.53;7.77;;;3.60;99.90;;;;;;5073058;28;20381;-87
2022/11/12 07:59:17;;;;;;;24.17;7.90;;;3.60;99.90;;;;;;5054705;28;20028;-87
2022/11/12 08:01:45;;;;;;;52.73;8.30;;;3.70;99.90;;;;;;5073056;28;20024;-86
2022/11/12 08:04:13;;;;;;;33.80;7.60;;;3.70;99.90;;;;;;5054409;28;20024;-87
2022/11/12 08:06:39;;;;;;;15.40;7.47;;;3.70;99.90;;;;;;5072601;28;20107;-87
2022/11/12 08:09:06;;;;;;;25.20;8.40;;;3.80;99.90;;;;;;5073387;28;20410;-87
2022/11/12 08:11:33;;;;;;;31.73;7.87;;;3.80;99.90;;;;;;5072682;28;20016;-87
2022/11/12 08:14:08;;;;;;;38.43;8.33;;;3.90;99.90;;;;;;5072583;28;20039;-87
2022/11/12 08:16:33;;;;;;;16.30;7.78;;;3.90;99.90;;;;;;5054570;28;20334;-87
2022/11/12 08:18:59;;;;;;;29.47;7.23;;;4.00;99.90;;;;;;5072794;28;20033;-87
2022/11/12 08:21:27;;;;;;;8.63;6.57;;;4.00;99.90;;;;;;5072963;28;20075;-87
2022/11/12 08:23:55;;;;;;;18.67;6.43;;;4.10;99.90;;;;;;5072966;28;20032;-87
2022/11/12 08:26:25;;;;;;;13.63;6.57;;;4.20;99.90;;;;;;5072618;28;20454;-87
2022/11/12 08:28:56;;;;;;;17.47;6.30;;;4.20;99.90;;;;;;5078183;28;20029;-87
2022/11/12 08:31:31;;;;;;;11.80;6.70;;;4.20;99.90;;;;;;5076468;28;20021;-87
2022/11/12 08:33:56;;;;;;;13.63;7.55;;;4.30;99.90;;;;;;5076502;28;20025;-86
2022/11/12 08:36:30;;;;;;;22.63;6.90;;;4.30;99.90;;;;;;5076344;28;20093;-89
2022/11/12 08:42:09;;;;;;;10.07;6.22;;;4.50;99.90;;;;;;5095021;28;20172;-86
2022/11/12 08:44:46;;;;;;;18.33;6.00;;;4.60;99.90;;;;;;5096654;28;20089;-86
2022/11/12 08:47:55;;;;;;;28.73;6.60;;;4.60;99.90;;;;;;5070681;28;20374;-86
2022/11/12 08:50:23;;;;;;;6.90;6.00;;;4.70;99.90;;;;;;5057511;28;20120;-86
2022/11/12 08:52:49;;;;;;;28.23;6.10;;;4.70;99.90;;;;;;5056331;28;20029;-88
2022/11/12 08:55:17;;;;;;;8.60;6.20;;;4.70;99.90;;;;;;5037869;28;20024;-85
2022/11/12 08:57:45;;;;;;;76.63;7.30;;;4.80;99.90;;;;;;5055595;28;20048;-85
2022/11/12 09:00:12;;;;;;;8.40;5.33;;;4.90;99.90;;;;;;5057536;28;20112;-86
2022/11/12 09:02:38;;;;;;;41.80;6.90;;;4.90;99.90;;;;;;5075606;28;20012;-85
2022/11/12 09:05:04;;;;;;;8.67;6.27;;;4.90;99.90;;;;;;5075421;28;20020;-85
2022/11/12 09:07:38;;;;;;;8.63;5.93;;;4.80;99.90;;;;;;5057377;28;20036;-86
2022/11/12 09:10:04;;;;;;;8.20;6.40;;;4.90;99.90;;;;;;5075491;28;20218;-86
2022/11/12 09:12:29;;;;;;;22.23;7.03;;;4.90;99.90;;;;;;5037034;28;20032;-85
2022/11/12 09:14:58;;;;;;;40.13;7.57;;;4.90;99.90;;;;;;5053737;28;20102;-85
2022/11/12 09:17:36;;;;;;;31.47;6.83;;;4.90;99.90;;;;;;5053633;28;20478;-85
2022/11/12 09:20:01;;;;;;;14.63;6.50;;;4.90;99.90;;;;;;5053752;28;20024;-85
2022/11/12 09:22:27;;;;;;;53.07;7.43;;;5.00;99.90;;;;;;5054705;28;20025;-85
2022/11/12 09:24:53;;;;;;;38.23;6.53;;;4.90;99.90;;;;;;5054083;28;20029;-85
2022/11/12 09:27:18;;;;;;;24.60;7.87;;;5.00;99.90;;;;;;5053139;28;20524;-85
2022/11/12 09:29:46;;;;;;;66.70;8.73;;;5.00;99.90;;;;;;5056353;28;20055;-85
2022/11/12 09:32:14;;;;;;;16.00;7.10;;;5.00;99.90;;;;;;5059040;28;20033;-86
2022/11/12 09:34:39;;;;;;;11.73;7.97;;;5.10;99.90;;;;;;5055208;28;20057;-86
2022/11/12 09:37:05;;;;;;;17.23;7.77;;;5.20;99.90;;;;;;5069071;28;20052;-86
2022/11/12 09:39:35;;;;;;;13.13;7.93;;;5.20;99.90;;;;;;5074947;28;20032;-85
2022/11/12 09:42:07;;;;;;;41.43;8.70;;;5.30;99.90;;;;;;5060750;28;20029;-85
2022/11/12 09:44:38;;;;;;;9.77;7.93;;;5.30;99.90;;;;;;5055584;28;20040;-85
2022/11/12 09:47:17;;;;;;;46.47;9.03;;;5.40;99.90;;;;;;5055050;28;20304;-85
2022/11/12 09:49:50;;;;;;;28.27;7.47;;;5.40;99.90;;;;;;5073505;28;20033;-86
2022/11/12 09:52:22;;;;;;;21.07;8.10;;;5.50;99.90;;;;;;5074958;28;20024;-85
2022/11/12 09:54:54;;;;;;;11.93;7.83;;;5.50;99.90;;;;;;5076436;28;20124;-85
2022/11/12 09:57:19;;;;;;;26.43;7.93;;;5.60;99.90;;;;;;5078217;28;20418;-85
2022/11/12 09:59:45;;;;;;;63.60;8.40;;;5.70;99.90;;;;;;5094794;28;20063;-86
2022/11/12 10:03:00;;;;;;;10.90;6.70;;;5.80;99.90;;;;;;5094828;28;20320;-85
2022/11/12 10:05:43;;;;;;;12.53;7.00;;;5.80;99.90;;;;;;5048631;28;20040;-85
2022/11/12 10:08:36;;;;;;;9.17;6.70;;;5.90;99.90;;;;;;5094591;28;20062;-84
2022/11/12 10:11:16;;;;;;;17.90;8.07;;;6.00;99.90;;;;;;5094403;28;20466;-85
2022/11/12 10:14:01;;;;;;;8.37;6.77;;;6.00;99.90;;;;;;5094550;28;20031;-85
2022/11/12 10:17:14;;;;;;;9.40;7.17;;;6.00;99.90;;;;;;5094884;28;20524;-87
2022/11/12 10:19:43;;;;;;;12.77;6.60;;;6.20;99.90;;;;;;5094859;28;20024;-88
2022/11/12 10:22:57;;;;;;;11.23;7.60;;;6.20;99.90;;;;;;5092957;28;20042;-85
2022/11/12 10:25:27;;;;;;;13.90;8.33;;;6.20;99.90;;;;;;5094386;28;20376;-86
2022/11/12 10:28:33;;;;;;;32.80;7.57;;;6.20;99.90;;;;;;5093997;28;20578;-87
2022/11/12 10:31:09;;;;;;;15.48;8.43;;;6.30;99.90;;;;;;5093683;28;20020;-86
2022/11/12 10:33:37;;;;;;;25.17;10.07;;;6.30;99.90;;;;;;5093975;28;20393;-86
2022/11/12 10:36:26;;;;;;;15.53;10.23;;;6.30;99.90;;;;;;5093987;28;20048;-86
2022/11/12 10:38:55;;;;;;;15.50;9.10;;;6.30;99.90;;;;;;5093737;28;20044;-86
2022/11/12 10:41:30;;;;;;;18.50;10.77;;;6.30;99.90;;;;;;5093892;28;20031;-87
2022/11/12 10:44:00;;;;;;;11.30;9.63;;;6.30;99.90;;;;;;5093671;28;20380;-86
2022/11/12 10:46:32;;;;;;;13.13;10.13;;;6.20;99.90;;;;;;5093849;28;20376;-86
2022/11/12 10:49:18;;;;;;;14.43;10.53;;;6.20;99.90;;;;;;5093384;28;20032;-86
2022/11/12 10:51:57;;;;;;;15.60;10.23;;;6.20;99.90;;;;;;5092311;28;20118;-84
2022/11/12 10:54:28;;;;;;;14.63;9.90;;;6.20;99.90;;;;;;5093483;28;20109;-84
2022/11/12 10:56:58;;;;;;;16.63;10.30;;;6.20;99.90;;;;;;5093376;28;20070;-84
2022/11/12 10:59:27;;;;;;;13.27;10.60;;;6.20;99.90;;;;;;5093296;28;20055;-84
2022/11/12 11:01:57;;;;;;;15.87;11.80;;;6.20;99.90;;;;;;5093278;28;20030;-84
2022/11/12 11:04:33;;;;;;;13.43;11.90;;;6.20;99.90;;;;;;5092983;28;20119;-85
2022/11/12 11:07:04;;;;;;;13.37;10.40;;;6.30;99.90;;;;;;5074844;28;20032;-84
2022/11/12 11:09:30;;;;;;;15.93;11.27;;;6.40;99.90;;;;;;5093240;28;20024;-84
2022/11/12 11:11:56;;;;;;;14.03;11.57;;;6.40;99.90;;;;;;5093395;28;20099;-84
2022/11/12 11:14:21;;;;;;;13.27;11.10;;;6.40;99.90;;;;;;5093149;28;20495;-84
2022/11/12 11:16:58;;;;;;;13.77;11.10;;;6.40;99.90;;;;;;5093224;28;20024;-86
2022/11/12 11:19:41;;;;;;;16.53;11.43;;;6.40;99.90;;;;;;5093238;28;20024;-84
2022/11/12 11:22:24;;;;;;;13.23;11.33;;;6.40;99.90;;;;;;5092987;28;20346;-84
2022/11/12 11:25:22;;;;;;;18.23;12.67;;;6.50;99.90;;;;;;5092999;28;20121;-84
2022/11/12 11:28:09;;;;;;;14.80;12.97;;;6.50;99.90;;;;;;5080488;28;20040;-84
2022/11/12 11:30:40;;;;;;;17.27;13.47;;;6.50;99.90;;;;;;5092576;28;20540;-84
2022/11/12 11:33:20;;;;;;;14.43;12.67;;;6.50;99.90;;;;;;5092808;28;20016;-85
2022/11/12 11:35:48;;;;;;;19.53;15.53;;;6.40;99.90;;;;;;5092514;28;20028;-84
2022/11/12 11:38:19;;;;;;;15.20;12.50;;;6.40;99.90;;;;;;5092505;28;20106;-84
2022/11/12 11:41:07;;;;;;;17.33;13.87;;;6.50;99.90;;;;;;5092702;28;20024;-84
2022/11/12 11:43:45;;;;;;;16.37;13.57;;;6.50;99.90;;;;;;5092540;28;20042;-84
2022/11/12 11:46:30;;;;;;;14.90;12.63;;;6.50;99.90;;;;;;5092239;28;20028;-84
2022/11/12 11:49:18;;;;;;;13.40;11.60;;;6.50;99.90;;;;;;5092364;28;20113;-84
2022/11/12 11:52:11;;;;;;;17.23;10.83;;;6.60;99.90;;;;;;5074342;28;20337;-84
2022/11/12 11:55:09;;;;;;;13.10;10.80;;;6.70;99.90;;;;;;5092661;28;20035;-84
2022/11/12 11:57:53;;;;;;;15.33;11.43;;;6.70;99.90;;;;;;5092448;28;20025;-84
2022/11/12 12:00:21;;;;;;;13.23;11.83;;;6.80;99.90;;;;;;5074145;28;20024;-84
2022/11/12 12:03:13;;;;;;;13.47;11.90;;;6.80;99.90;;;;;;5091533;28;20173;-84
2022/11/12 12:05:48;;;;;;;15.03;12.67;;;6.90;99.90;;;;;;5081283;28;20048;-84
2022/11/12 12:08:24;;;;;;;14.05;12.25;;;6.90;99.90;;;;;;5092177;28;20037;-84
2022/11/12 12:11:22;;;;;;;17.00;13.27;;;6.80;99.90;;;;;;5092478;28;20032;-85
2022/11/12 12:14:01;;;;;;;16.33;13.33;;;6.90;99.90;;;;;;5092260;28;20024;-84
2022/11/12 12:17:09;;;;;;;16.47;13.97;;;6.90;99.90;;;;;;5074064;28;20070;-84
2022/11/12 12:19:43;;;;;;;16.73;14.90;;;6.90;99.90;;;;;;5074082;28;20369;-84
2022/11/12 12:22:17;;;;;;;17.02;15.00;;;6.90;99.90;;;;;;5092278;28;20024;-84
2022/11/12 12:24:46;;;;;;;16.27;13.93;;;6.90;99.90;;;;;;5092192;28;20032;-84
2022/11/12 12:27:24;;;;;;;19.00;14.27;;;7.00;99.90;;;;;;5092061;28;20028;-84
2022/11/12 12:30:16;;;;;;;16.57;14.83;;;7.00;99.90;;;;;;5092113;28;20028;-84
2022/11/12 12:32:52;;;;;;;19.47;15.53;;;7.00;99.90;;;;;;5089056;28;20453;-84
2022/11/12 12:35:31;;;;;;;19.37;17.27;;;7.10;99.90;;;;;;5074252;28;20024;-84
2022/11/12 12:38:31;;;;;;;19.50;16.87;;;7.10;99.90;;;;;;5074104;28;20020;-86
2022/11/12 12:41:26;;;;;;;21.23;17.30;;;7.10;99.90;;;;;;5092310;28;20028;-85
2022/11/12 12:43:55;;;;;;;20.50;18.20;;;7.00;99.90;;;;;;5092204;28;20492;-85
2022/11/12 12:46:25;;;;;;;22.03;18.57;;;7.00;99.90;;;;;;5092136;28;20024;-85
2022/11/12 12:48:54;;;;;;;20.87;17.33;;;7.00;99.90;;;;;;5073956;28;20373;-85
2022/11/12 12:51:21;;;;;;;20.47;17.37;;;7.00;99.90;;;;;;5091922;28;20016;-85
2022/11/12 12:53:46;;;;;;;18.47;16.47;;;7.00;99.90;;;;;;5092348;28;20016;-85
2022/11/12 12:56:12;;;;;;;17.13;15.33;;;7.00;99.90;;;;;;5092085;28;20032;-85
2022/11/12 12:58:48;;;;;;;17.80;15.90;;;7.00;99.90;;;;;;5092108;28;20152;-84
2022/11/12 13:01:20;;;;;;;18.23;16.33;;;7.00;99.90;;;;;;5092107;28;20099;-85
2022/11/12 13:03:51;;;;;;;17.53;15.50;;;7.00;99.90;;;;;;5091930;28;20028;-85
2022/11/12 13:06:20;;;;;;;18.67;16.10;;;7.00;99.90;;;;;;5091876;28;20024;-85
2022/11/12 13:08:59;;;;;;;18.67;16.63;;;7.00;99.90;;;;;;5092157;28;20372;-84
2022/11/12 13:14:35;;;;;;;18.77;16.67;;;6.90;99.90;;;;;;5093230;28;20055;-85
2022/11/12 13:17:09;;;;;;;17.97;15.80;;;6.90;99.90;;;;;;5095591;28;20032;-85
2022/11/12 13:19:52;;;;;;;18.57;16.67;;;7.00;99.90;;;;;;5095596;28;20043;-85
2022/11/12 13:22:17;;;;;;;18.10;16.30;;;7.00;99.90;;;;;;5095313;28;20377;-85
2022/11/12 13:25:04;;;;;;;20.83;18.63;;;7.00;99.90;;;;;;5095766;28;20026;-85
2022/11/12 13:27:39;;;;;;;18.57;16.63;;;7.00;99.90;;;;;;5095388;28;20035;-85